Terminal Aerodrome Forecast
Issued by NWS Jackson, KY

Home | Current Version | Previous Version | Text Only | Print | Product List | Glossary On
Versions: 1 2 3 4 5 6 7 8 9 10 11 12 13 14 15 16 17 18
000
FTUS43 KJKL 290538
TAFLOZ
TAF
KLOZ 290538Z 2906/3006 00000KT P6SM FEW250
     FM291130 00000KT 4SM BR FEW250
     FM291300 VRB06KT P6SM SCT250
     FM300300 00000KT P6SM BKN090=

USA.gov is the U.S. government's official web portal to all federal, state and local government web resources and services.